Time;durP1;ratioP1;P1;durP2;ratioP2;P2;SDS_P1;SDS_P2;PMS_P1;PMS_P2;Temp;Humidity;BMP_temperature;BMP_pressure;BME280_temperature;BME280_humidity;BME280_pressure;Samples;Min_cycle;Max_cycle;Signal;HPM_P1;HPM_P2
2022/08/30 00:01:10;;;;;;;11.07;9.85;;;;;;;;;;6215106;23;20013;-78
2022/08/30 00:03:39;;;;;;;10.88;9.77;;;;;;;;;;6215320;23;20436;-78
2022/08/30 00:06:06;;;;;;;11.18;9.52;;;;;;;;;;6215275;23;20007;-78
2022/08/30 00:08:33;;;;;;;11.52;10.23;;;;;;;;;;6215376;23;20440;-78
2022/08/30 00:11:00;;;;;;;10.63;9.60;;;;;;;;;;6214696;23;20072;-78
2022/08/30 00:13:26;;;;;;;11.20;10.18;;;;;;;;;;6214992;23;20480;-78
2022/08/30 00:15:52;;;;;;;10.25;9.25;;;;;;;;;;6215085;23;20013;-78
2022/08/30 00:18:19;;;;;;;12.38;10.23;;;;;;;;;;6214918;23;20011;-78
2022/08/30 00:20:46;;;;;;;10.70;9.70;;;;;;;;;;6214886;23;20001;-78
2022/08/30 00:23:13;;;;;;;10.65;9.65;;;;;;;;;;6214905;23;20028;-78
2022/08/30 00:25:39;;;;;;;11.45;10.32;;;;;;;;;;6215063;23;20004;-78
2022/08/30 00:28:05;;;;;;;12.88;9.77;;;;;;;;;;6215109;23;20012;-78
2022/08/30 00:30:32;;;;;;;11.88;9.70;;;;;;;;;;6214804;23;20056;-78
2022/08/30 00:32:58;;;;;;;12.48;11.30;;;;;;;;;;6215086;23;20005;-78
2022/08/30 00:35:24;;;;;;;12.07;10.52;;;;;;;;;;6214867;23;20008;-78
2022/08/30 00:37:50;;;;;;;11.95;10.75;;;;;;;;;;6215000;23;20420;-78
2022/08/30 00:40:19;;;;;;;12.70;11.32;;;;;;;;;;6214587;23;20000;-78
2022/08/30 00:42:45;;;;;;;12.73;11.07;;;;;;;;;;6215033;23;20079;-78
2022/08/30 00:45:13;;;;;;;11.95;10.75;;;;;;;;;;6214790;23;19996;-78
2022/08/30 00:47:39;;;;;;;10.57;9.60;;;;;;;;;;6214848;23;20051;-78
2022/08/30 00:50:07;;;;;;;11.52;10.10;;;;;;;;;;6214260;23;20001;-78
2022/08/30 00:52:34;;;;;;;11.88;10.68;;;;;;;;;;6214604;23;19997;-78
2022/08/30 00:55:01;;;;;;;11.57;10.38;;;;;;;;;;6214862;23;20011;-78
2022/08/30 00:57:27;;;;;;;12.18;11.00;;;;;;;;;;6214575;23;20395;-77
2022/08/30 00:59:53;;;;;;;11.48;10.27;;;;;;;;;;6214637;23;20380;-78
2022/08/30 01:02:22;;;;;;;12.80;10.68;;;;;;;;;;6214209;23;20071;-78
2022/08/30 01:04:50;;;;;;;14.25;10.93;;;;;;;;;;6214716;23;20031;-77
2022/08/30 01:07:16;;;;;;;13.43;11.98;;;;;;;;;;6214550;23;20000;-78
2022/08/30 01:09:43;;;;;;;12.20;10.60;;;;;;;;;;6214567;23;20341;-78
2022/08/30 01:12:09;;;;;;;12.30;11.00;;;;;;;;;;6214500;23;20421;-78
2022/08/30 01:14:35;;;;;;;12.88;11.63;;;;;;;;;;6214354;23;20025;-78
2022/08/30 01:17:01;;;;;;;13.32;11.70;;;;;;;;;;6214693;23;20314;-77
2022/08/30 01:19:33;;;;;;;14.05;12.35;;;;;;;;;;6214483;23;20004;-77
2022/08/30 01:22:18;;;;;;;13.55;12.15;;;;;;;;;;6214255;23;20016;-77
2022/08/30 01:24:46;;;;;;;;;;;;;;;;;;6215199;23;20466;-77
2022/08/30 01:27:14;;;;;;;14.27;11.80;;;;;;;;;;6214262;23;19946;-78
2022/08/30 01:29:43;;;;;;;14.27;12.43;;;;;;;;;;6214436;23;20289;-78
2022/08/30 01:32:17;;;;;;;18.40;13.85;;;;;;;;;;6214558;23;20383;-77
2022/08/30 01:34:47;;;;;;;14.43;12.90;;;;;;;;;;6214669;23;20060;-78
2022/08/30 01:37:16;;;;;;;14.20;12.68;;;;;;;;;;6214361;23;19997;-77
2022/08/30 01:39:45;;;;;;;15.80;14.23;;;;;;;;;;6214396;23;20005;-78
2022/08/30 01:42:11;;;;;;;13.73;12.50;;;;;;;;;;6214432;23;20008;-78
2022/08/30 01:44:38;;;;;;;16.10;12.95;;;;;;;;;;6214667;23;20004;-77
2022/08/30 01:47:05;;;;;;;14.27;12.95;;;;;;;;;;6214088;23;20001;-78
2022/08/30 01:49:31;;;;;;;13.98;12.55;;;;;;;;;;6214324;23;19997;-78
2022/08/30 01:51:57;;;;;;;15.07;13.68;;;;;;;;;;6214066;23;20009;-78
2022/08/30 01:54:23;;;;;;;16.77;14.55;;;;;;;;;;6214443;23;20000;-77
2022/08/30 01:56:49;;;;;;;16.20;13.77;;;;;;;;;;6214273;23;20024;-77
2022/08/30 01:59:15;;;;;;;15.75;14.30;;;;;;;;;;6214394;23;20009;-77
2022/08/30 02:01:41;;;;;;;15.57;13.75;;;;;;;;;;6215663;23;20422;-77
2022/08/30 02:04:08;;;;;;;15.57;14.02;;;;;;;;;;6215961;23;20024;-78
2022/08/30 02:06:34;;;;;;;16.38;13.52;;;;;;;;;;6216466;23;20527;-77
2022/08/30 02:09:00;;;;;;;15.95;14.18;;;;;;;;;;6215859;23;20004;-77
2022/08/30 02:11:26;;;;;;;15.18;13.63;;;;;;;;;;6189755;23;20079;-77
2022/08/30 02:13:53;;;;;;;15.38;13.85;;;;;;;;;;6216388;23;20058;-78
2022/08/30 02:16:21;;;;;;;15.27;13.70;;;;;;;;;;6216094;23;20008;-78
2022/08/30 02:18:47;;;;;;;14.63;13.30;;;;;;;;;;6216274;23;20001;-77
2022/08/30 02:21:14;;;;;;;14.63;12.95;;;;;;;;;;6215155;23;20332;-77
2022/08/30 02:23:41;;;;;;;14.02;12.55;;;;;;;;;;6216277;23;20005;-77
2022/08/30 02:26:08;;;;;;;13.50;12.10;;;;;;;;;;6215734;23;20432;-77
2022/08/30 02:28:34;;;;;;;15.13;13.65;;;;;;;;;;6216339;23;20005;-77
2022/08/30 02:31:00;;;;;;;14.43;12.98;;;;;;;;;;6215644;23;20502;-78
2022/08/30 02:33:27;;;;;;;14.68;13.38;;;;;;;;;;6216153;23;20008;-77
2022/08/30 02:35:53;;;;;;;13.95;12.52;;;;;;;;;;6216368;23;20416;-77
2022/08/30 02:38:19;;;;;;;15.77;13.23;;;;;;;;;;6215811;23;20007;-77
2022/08/30 02:40:45;;;;;;;14.70;13.10;;;;;;;;;;6215941;23;20079;-77
2022/08/30 02:43:11;;;;;;;15.45;13.35;;;;;;;;;;6215759;23;20005;-78
2022/08/30 02:45:37;;;;;;;14.45;13.15;;;;;;;;;;6216033;23;20045;-77
2022/08/30 02:48:04;;;;;;;16.55;13.85;;;;;;;;;;6215682;23;20424;-77
2022/08/30 02:50:30;;;;;;;15.70;14.10;;;;;;;;;;6215937;23;20005;-77
2022/08/30 02:52:56;;;;;;;13.70;12.50;;;;;;;;;;6216008;23;20055;-77
2022/08/30 02:55:22;;;;;;;15.10;13.70;;;;;;;;;;6215541;23;20328;-77
2022/08/30 02:57:48;;;;;;;14.15;12.75;;;;;;;;;;6215780;23;20005;-77
2022/08/30 03:00:16;;;;;;;15.05;13.65;;;;;;;;;;6215370;23;20076;-77
2022/08/30 03:02:43;;;;;;;15.80;14.25;;;;;;;;;;6215818;23;20380;-78
2022/08/30 03:05:11;;;;;;;15.15;13.57;;;;;;;;;;6215540;23;20000;-77
2022/08/30 03:07:38;;;;;;;13.57;12.27;;;;;;;;;;6215995;23;20016;-77
2022/08/30 03:10:04;;;;;;;14.05;12.63;;;;;;;;;;6215625;23;20005;-78
2022/08/30 03:12:31;;;;;;;14.77;13.48;;;;;;;;;;6215370;23;19996;-78
2022/08/30 03:14:57;;;;;;;15.25;13.75;;;;;;;;;;6215672;23;20016;-78
2022/08/30 03:17:24;;;;;;;14.95;13.55;;;;;;;;;;6215135;23;20001;-78
2022/08/30 03:19:50;;;;;;;14.70;13.00;;;;;;;;;;6215825;23;20012;-77
2022/08/30 03:22:16;;;;;;;13.90;12.50;;;;;;;;;;6215163;23;20440;-77
2022/08/30 03:24:44;;;;;;;13.50;12.30;;;;;;;;;;6215761;23;20004;-77
2022/08/30 03:27:10;;;;;;;14.10;12.73;;;;;;;;;;6215376;23;20047;-78
2022/08/30 03:29:38;;;;;;;15.25;13.77;;;;;;;;;;6215553;23;20011;-78
2022/08/30 03:32:04;;;;;;;14.52;12.93;;;;;;;;;;6215844;23;20011;-77
2022/08/30 03:34:31;;;;;;;14.45;12.93;;;;;;;;;;6215405;23;20004;-77
2022/08/30 03:37:00;;;;;;;18.05;13.60;;;;;;;;;;6215547;23;20009;-77
2022/08/30 03:39:26;;;;;;;14.52;13.10;;;;;;;;;;6215167;23;20360;-77
2022/08/30 03:41:53;;;;;;;14.23;12.73;;;;;;;;;;6215402;23;20467;-77
2022/08/30 03:44:20;;;;;;;14.07;12.68;;;;;;;;;;6214995;23;20023;-77
2022/08/30 03:46:46;;;;;;;14.27;12.75;;;;;;;;;;6215275;23;20080;-77
2022/08/30 03:49:12;;;;;;;14.00;12.32;;;;;;;;;;6215244;23;20004;-78
2022/08/30 03:51:38;;;;;;;16.58;13.15;;;;;;;;;;6215426;23;20000;-78
2022/08/30 03:54:04;;;;;;;14.07;11.93;;;;;;;;;;6215305;23;20001;-77
2022/08/30 03:56:30;;;;;;;13.80;11.73;;;;;;;;;;6188134;23;20372;-77
2022/08/30 03:58:56;;;;;;;14.95;13.10;;;;;;;;;;6215324;23;20035;-78
2022/08/30 04:01:23;;;;;;;13.90;12.68;;;;;;;;;;6214767;23;20448;-78
2022/08/30 04:03:49;;;;;;;13.73;12.50;;;;;;;;;;6215258;23;20071;-77
2022/08/30 04:06:15;;;;;;;14.45;12.32;;;;;;;;;;6215078;23;20089;-78
2022/08/30 04:08:43;;;;;;;14.15;12.85;;;;;;;;;;6215058;23;20004;-77
2022/08/30 04:11:09;;;;;;;14.35;12.32;;;;;;;;;;6215192;23;20004;-77
2022/08/30 04:13:35;;;;;;;14.40;12.50;;;;;;;;;;6214923;23;20016;-77
2022/08/30 04:16:02;;;;;;;15.55;12.25;;;;;;;;;;6215271;23;20004;-77
2022/08/30 04:18:28;;;;;;;18.00;16.17;;;;;;;;;;6214790;23;20008;-78
2022/08/30 04:20:54;;;;;;;14.93;13.30;;;;;;;;;;6215062;23;20008;-78
2022/08/30 04:23:20;;;;;;;14.45;13.05;;;;;;;;;;6214739;23;20491;-77
2022/08/30 04:25:47;;;;;;;14.27;12.27;;;;;;;;;;6214789;23;20087;-78
2022/08/30 04:28:13;;;;;;;12.88;11.32;;;;;;;;;;6215034;23;20005;-78
2022/08/30 04:30:40;;;;;;;15.77;12.57;;;;;;;;;;6214729;23;20004;-78
2022/08/30 04:33:06;;;;;;;13.93;12.40;;;;;;;;;;6215076;23;20458;-78
2022/08/30 04:35:33;;;;;;;14.95;12.05;;;;;;;;;;6214580;23;20007;-77
2022/08/30 04:37:59;;;;;;;13.57;11.88;;;;;;;;;;6214859;23;20039;-77
2022/08/30 04:40:25;;;;;;;15.30;12.55;;;;;;;;;;6214484;23;20005;-77
2022/08/30 04:42:53;;;;;;;13.13;11.52;;;;;;;;;;6214713;23;20060;-77
2022/08/30 04:45:20;;;;;;;13.02;11.73;;;;;;;;;;6214930;23;20298;-78
2022/08/30 04:47:46;;;;;;;13.88;12.35;;;;;;;;;;6214645;23;20020;-78
2022/08/30 04:50:15;;;;;;;13.10;11.10;;;;;;;;;;6214861;23;20012;-77
2022/08/30 04:52:41;;;;;;;16.88;12.80;;;;;;;;;;6214627;23;20035;-77
2022/08/30 04:55:07;;;;;;;42.90;38.28;;;;;;;;;;6214749;23;20047;-76
2022/08/30 04:57:34;;;;;;;14.75;13.10;;;;;;;;;;6214507;23;20005;-77
2022/08/30 05:00:00;;;;;;;14.32;12.90;;;;;;;;;;6214723;23;20001;-78
2022/08/30 05:05:39;;;;;;;15.85;14.15;;;;;;;;;;6215027;23;20052;-78
2022/08/30 05:08:10;;;;;;;16.60;14.10;;;;;;;;;;6214584;23;20000;-77
2022/08/30 05:10:38;;;;;;;13.95;12.63;;;;;;;;;;6214131;23;20428;-77
2022/08/30 05:13:04;;;;;;;27.02;24.17;;;;;;;;;;6214311;23;20004;-79
2022/08/30 05:15:30;;;;;;;20.75;18.60;;;;;;;;;;6213638;23;20021;-78
2022/08/30 05:17:56;;;;;;;13.25;11.95;;;;;;;;;;6214337;23;20009;-77
2022/08/30 05:20:22;;;;;;;13.70;12.25;;;;;;;;;;6214386;23;20005;-77
2022/08/30 05:22:48;;;;;;;13.45;12.05;;;;;;;;;;6213912;23;20012;-78
2022/08/30 05:25:41;;;;;;;15.60;11.73;;;;;;;;;;6211667;23;20079;-79
2022/08/30 05:28:07;;;;;;;15.13;12.43;;;;;;;;;;6205152;23;20059;-78
2022/08/30 05:30:35;;;;;;;14.30;12.80;;;;;;;;;;6211658;23;20050;-77
2022/08/30 05:33:01;;;;;;;13.23;11.65;;;;;;;;;;6208270;23;20420;-78
2022/08/30 05:35:27;;;;;;;16.88;13.43;;;;;;;;;;6211886;23;20023;-78
2022/08/30 05:37:53;;;;;;;16.13;13.02;;;;;;;;;;6212335;23;20008;-79
2022/08/30 05:40:19;;;;;;;14.65;13.25;;;;;;;;;;6184948;23;20068;-77
2022/08/30 05:42:46;;;;;;;14.80;12.88;;;;;;;;;;6212233;23;20013;-79
2022/08/30 05:45:13;;;;;;;14.40;12.48;;;;;;;;;;6211981;23;20016;-79
2022/08/30 05:47:39;;;;;;;14.68;13.40;;;;;;;;;;6212616;23;20001;-77
2022/08/30 05:50:05;;;;;;;14.50;13.07;;;;;;;;;;6212695;23;20004;-80
2022/08/30 05:52:37;;;;;;;16.83;14.98;;;;;;;;;;6212531;23;20067;-78
2022/08/30 05:55:04;;;;;;;15.35;13.73;;;;;;;;;;6211125;23;20001;-79
2022/08/30 05:57:34;;;;;;;13.13;11.88;;;;;;;;;;6212194;23;20039;-79
2022/08/30 06:00:01;;;;;;;16.35;14.65;;;;;;;;;;6211153;23;20005;-76
2022/08/30 06:02:27;;;;;;;16.50;14.82;;;;;;;;;;6210941;23;20095;-76
2022/08/30 06:04:54;;;;;;;16.15;13.73;;;;;;;;;;6212226;23;20081;-78
2022/08/30 06:07:20;;;;;;;14.65;13.20;;;;;;;;;;6212385;23;20000;-77
2022/08/30 06:09:46;;;;;;;13.90;12.38;;;;;;;;;;6212111;23;20332;-77
2022/08/30 06:12:12;;;;;;;14.65;12.93;;;;;;;;;;6211829;23;20004;-78
2022/08/30 06:14:38;;;;;;;14.77;13.10;;;;;;;;;;6211226;23;20013;-76
2022/08/30 06:17:05;;;;;;;14.52;12.45;;;;;;;;;;6212407;23;20027;-77
2022/08/30 06:19:31;;;;;;;14.07;12.65;;;;;;;;;;6212611;23;20058;-75
2022/08/30 06:21:57;;;;;;;13.98;12.57;;;;;;;;;;6212045;23;20044;-76
2022/08/30 06:24:23;;;;;;;16.15;14.65;;;;;;;;;;6212001;23;20070;-76
2022/08/30 06:26:49;;;;;;;15.57;13.40;;;;;;;;;;6210828;23;20080;-77
2022/08/30 06:29:17;;;;;;;15.63;11.88;;;;;;;;;;6212207;23;20356;-76
2022/08/30 06:31:43;;;;;;;12.80;11.55;;;;;;;;;;6212690;23;20001;-77
2022/08/30 06:34:09;;;;;;;13.77;12.07;;;;;;;;;;6211992;23;20705;-76
2022/08/30 06:36:35;;;;;;;13.50;11.52;;;;;;;;;;6211669;23;20381;-75
2022/08/30 06:39:02;;;;;;;15.90;12.20;;;;;;;;;;6212811;23;20001;-76
2022/08/30 06:41:30;;;;;;;12.80;11.50;;;;;;;;;;6211941;23;20004;-76
2022/08/30 06:43:57;;;;;;;13.13;11.82;;;;;;;;;;6212089;23;20004;-76
2022/08/30 06:46:25;;;;;;;14.27;12.43;;;;;;;;;;6211767;23;20000;-76
2022/08/30 06:48:51;;;;;;;13.80;12.52;;;;;;;;;;6213672;23;20001;-76
2022/08/30 06:51:39;;;;;;;13.93;11.85;;;;;;;;;;6213962;23;20028;-75
2022/08/30 06:54:07;;;;;;;13.52;12.23;;;;;;;;;;6213251;23;20429;-76
2022/08/30 06:56:33;;;;;;;13.57;12.18;;;;;;;;;;6213965;23;20038;-76
2022/08/30 06:58:59;;;;;;;13.15;11.77;;;;;;;;;;6212474;23;20000;-78
2022/08/30 07:01:26;;;;;;;13.18;11.85;;;;;;;;;;6211880;23;20452;-78
2022/08/30 07:03:54;;;;;;;12.82;11.48;;;;;;;;;;6212778;23;20031;-76
2022/08/30 07:06:20;;;;;;;12.07;10.82;;;;;;;;;;6213953;23;20015;-77
2022/08/30 07:08:49;;;;;;;10.90;9.90;;;;;;;;;;6212599;23;20075;-76
2022/08/30 07:11:15;;;;;;;13.10;11.75;;;;;;;;;;6212847;23;20027;-77
2022/08/30 07:13:41;;;;;;;11.77;10.63;;;;;;;;;;6212825;23;20138;-79
2022/08/30 07:16:14;;;;;;;11.20;9.60;;;;;;;;;;6214026;23;20012;-78
2022/08/30 07:18:49;;;;;;;10.77;9.68;;;;;;;;;;6185078;23;20012;-78
2022/08/30 07:21:17;;;;;;;12.13;10.75;;;;;;;;;;6212869;23;20012;-78
2022/08/30 07:23:44;;;;;;;10.77;9.65;;;;;;;;;;6214357;23;20018;-78
2022/08/30 07:26:12;;;;;;;10.05;9.05;;;;;;;;;;6213116;23;20035;-77
2022/08/30 07:28:39;;;;;;;10.80;9.68;;;;;;;;;;6214157;23;20440;-76
2022/08/30 07:31:07;;;;;;;10.27;9.25;;;;;;;;;;6212698;23;20014;-79
2022/08/30 07:33:33;;;;;;;11.35;10.02;;;;;;;;;;6214262;23;20005;-76
2022/08/30 07:35:59;;;;;;;11.55;10.35;;;;;;;;;;6214191;23;20032;-77
2022/08/30 07:38:26;;;;;;;10.80;8.93;;;;;;;;;;6214319;23;20001;-76
2022/08/30 07:40:52;;;;;;;10.07;9.07;;;;;;;;;;6214125;23;20016;-77
2022/08/30 07:43:18;;;;;;;10.40;9.48;;;;;;;;;;6213036;23;20008;-77
2022/08/30 07:45:44;;;;;;;11.05;9.98;;;;;;;;;;6214033;23;20004;-77
2022/08/30 07:48:11;;;;;;;11.70;10.55;;;;;;;;;;6212686;23;20004;-78
2022/08/30 07:50:38;;;;;;;11.82;10.73;;;;;;;;;;6213405;23;20009;-77
2022/08/30 07:53:04;;;;;;;11.38;9.35;;;;;;;;;;6213495;23;20368;-76
2022/08/30 07:55:31;;;;;;;10.10;8.85;;;;;;;;;;6212367;23;20015;-76
2022/08/30 07:57:57;;;;;;;9.73;8.73;;;;;;;;;;6213286;23;20040;-76
2022/08/30 08:00:23;;;;;;;9.45;8.55;;;;;;;;;;6212161;23;20019;-76
2022/08/30 08:02:49;;;;;;;10.02;9.00;;;;;;;;;;6212221;23;20008;-76
2022/08/30 08:05:15;;;;;;;11.95;10.75;;;;;;;;;;6211835;23;20008;-75
2022/08/30 08:07:41;;;;;;;10.98;9.95;;;;;;;;;;6212667;23;20001;-77
2022/08/30 08:10:08;;;;;;;9.90;8.90;;;;;;;;;;6213914;23;20013;-78
2022/08/30 08:12:35;;;;;;;9.75;8.75;;;;;;;;;;6212856;23;20009;-77
2022/08/30 08:15:01;;;;;;;12.88;10.18;;;;;;;;;;6212901;23;20396;-76
2022/08/30 08:17:27;;;;;;;10.93;8.80;;;;;;;;;;6212517;23;20028;-77
2022/08/30 08:19:53;;;;;;;10.18;9.13;;;;;;;;;;6213228;23;20396;-74
2022/08/30 08:22:19;;;;;;;9.13;8.20;;;;;;;;;;6212855;23;20059;-76
2022/08/30 08:24:46;;;;;;;10.25;9.20;;;;;;;;;;6213101;23;20314;-76
2022/08/30 08:27:12;;;;;;;14.05;12.60;;;;;;;;;;6212177;23;20008;-78
2022/08/30 08:29:38;;;;;;;10.52;9.40;;;;;;;;;;6212054;23;20004;-77
2022/08/30 08:32:04;;;;;;;18.25;15.65;;;;;;;;;;6212508;23;20008;-77
2022/08/30 08:34:30;;;;;;;13.13;10.00;;;;;;;;;;6211699;23;20016;-76
2022/08/30 08:36:56;;;;;;;9.98;8.98;;;;;;;;;;6214089;23;20076;-79
2022/08/30 08:39:22;;;;;;;10.63;9.38;;;;;;;;;;6213341;23;19997;-76
2022/08/30 08:42:02;;;;;;;9.35;8.45;;;;;;;;;;6213010;23;20322;-77
2022/08/30 08:44:32;;;;;;;9.48;8.57;;;;;;;;;;6212608;23;20004;-76
2022/08/30 08:46:58;;;;;;;10.13;8.45;;;;;;;;;;6211348;23;20004;-78
2022/08/30 08:49:24;;;;;;;8.98;8.18;;;;;;;;;;6212304;23;20400;-76
2022/08/30 08:54:57;;;;;;;10.20;8.80;;;;;;;;;;6212398;23;20015;-77
2022/08/30 08:57:23;;;;;;;8.82;7.90;;;;;;;;;;6211851;23;20004;-78
2022/08/30 08:59:53;;;;;;;8.82;7.95;;;;;;;;;;6211094;23;20365;-79
2022/08/30 09:02:37;;;;;;;8.80;7.82;;;;;;;;;;6212445;23;20012;-76
2022/08/30 09:05:04;;;;;;;9.65;7.57;;;;;;;;;;6213444;23;20007;-77
2022/08/30 09:07:31;;;;;;;8.95;7.68;;;;;;;;;;6211970;23;20000;-77
2022/08/30 09:09:59;;;;;;;8.00;7.30;;;;;;;;;;6212808;23;20459;-76
2022/08/30 09:12:26;;;;;;;9.52;8.07;;;;;;;;;;6213514;23;20004;-78
2022/08/30 09:14:53;;;;;;;8.82;8.02;;;;;;;;;;6212659;23;20066;-77
2022/08/30 09:17:20;;;;;;;9.57;8.52;;;;;;;;;;6213304;23;19997;-77
2022/08/30 09:20:05;;;;;;;8.07;7.35;;;;;;;;;;6186100;23;20333;-79
2022/08/30 09:22:50;;;;;;;7.40;6.70;;;;;;;;;;6210151;23;20083;-79
2022/08/30 09:25:22;;;;;;;9.00;8.10;;;;;;;;;;6212917;23;20615;-77
2022/08/30 09:27:49;;;;;;;9.20;8.30;;;;;;;;;;6212113;23;20004;-78
2022/08/30 09:30:16;;;;;;;7.93;7.15;;;;;;;;;;6211592;23;20424;-77
2022/08/30 09:32:44;;;;;;;8.95;7.40;;;;;;;;;;6212205;23;20012;-77
2022/08/30 09:35:12;;;;;;;7.43;6.72;;;;;;;;;;6212618;23;20001;-77
2022/08/30 09:37:48;;;;;;;9.43;8.30;;;;;;;;;;6212167;23;20058;-77
2022/08/30 09:40:20;;;;;;;9.90;8.02;;;;;;;;;;6211098;23;20063;-77
2022/08/30 09:43:00;;;;;;;8.80;7.10;;;;;;;;;;6211106;23;20040;-79
2022/08/30 09:45:29;;;;;;;8.27;7.03;;;;;;;;;;6212356;23;20037;-77
2022/08/30 09:47:55;;;;;;;11.25;10.18;;;;;;;;;;6211572;23;20011;-77
2022/08/30 09:50:21;;;;;;;8.30;7.40;;;;;;;;;;6211321;23;20084;-77
2022/08/30 09:53:13;;;;;;;9.00;8.20;;;;;;;;;;6212905;23;20016;-77
2022/08/30 09:55:42;;;;;;;10.05;7.47;;;;;;;;;;6212008;23;20029;-77
2022/08/30 09:58:14;;;;;;;8.27;7.45;;;;;;;;;;6210620;23;20490;-77
2022/08/30 10:00:45;;;;;;;10.13;7.53;;;;;;;;;;6211269;23;20085;-79
2022/08/30 10:03:33;;;;;;;10.50;9.50;;;;;;;;;;6212067;23;20051;-76
2022/08/30 10:06:11;;;;;;;8.15;7.35;;;;;;;;;;6211707;23;20004;-77
2022/08/30 10:08:40;;;;;;;8.80;7.43;;;;;;;;;;6211980;23;20032;-78
2022/08/30 10:11:12;;;;;;;9.68;7.80;;;;;;;;;;6211580;23;20024;-79
2022/08/30 10:13:57;;;;;;;8.95;7.03;;;;;;;;;;6185512;23;20071;-82
2022/08/30 10:16:32;;;;;;;8.25;7.45;;;;;;;;;;6212019;23;20076;-77
2022/08/30 10:19:17;;;;;;;7.88;7.18;;;;;;;;;;6212389;23;20091;-78
2022/08/30 10:21:46;;;;;;;7.55;6.85;;;;;;;;;;6210309;23;20092;-77
2022/08/30 10:24:19;;;;;;;8.48;7.53;;;;;;;;;;6214562;23;20001;-78
2022/08/30 10:26:52;;;;;;;9.77;8.80;;;;;;;;;;6212391;23;20000;-76
2022/08/30 10:29:24;;;;;;;10.10;8.02;;;;;;;;;;6214804;23;20016;-79
2022/08/30 10:31:56;;;;;;;8.25;7.10;;;;;;;;;;6213841;23;20011;-79
2022/08/30 10:34:28;;;;;;;7.47;6.60;;;;;;;;;;6214241;23;20004;-77
2022/08/30 10:36:57;;;;;;;9.43;7.32;;;;;;;;;;6213270;23;20015;-76
2022/08/30 10:39:26;;;;;;;7.93;6.82;;;;;;;;;;6213981;23;20035;-77
2022/08/30 10:41:59;;;;;;;8.88;7.18;;;;;;;;;;6212598;23;20005;-77
2022/08/30 10:44:32;;;;;;;7.78;6.97;;;;;;;;;;6214587;23;20007;-77
2022/08/30 10:47:25;;;;;;;7.82;7.00;;;;;;;;;;6162388;23;20036;-77
2022/08/30 10:49:55;;;;;;;7.63;6.68;;;;;;;;;;6168212;23;20012;-78
2022/08/30 10:52:40;;;;;;;10.20;6.90;;;;;;;;;;6163023;23;20005;-77
2022/08/30 10:55:30;;;;;;;10.80;6.78;;;;;;;;;;6213847;23;20020;-78
2022/08/30 10:58:04;;;;;;;7.28;6.57;;;;;;;;;;6198639;23;20009;-77
2022/08/30 11:00:35;;;;;;;7.65;6.78;;;;;;;;;;6187216;23;20012;-76
2022/08/30 11:03:10;;;;;;;7.93;7.15;;;;;;;;;;6213391;23;20083;-76
2022/08/30 11:05:59;;;;;;;7.43;6.72;;;;;;;;;;6214142;23;20008;-81
2022/08/30 11:08:37;;;;;;;10.70;9.02;;;;;;;;;;6185960;23;20015;-79
2022/08/30 11:11:25;;;;;;;8.48;7.03;;;;;;;;;;6213119;23;20009;-77
2022/08/30 11:14:24;;;;;;;6.85;6.15;;;;;;;;;;6184448;23;20036;-78
2022/08/30 11:16:52;;;;;;;7.30;6.53;;;;;;;;;;6188561;23;20095;-77
2022/08/30 11:19:34;;;;;;;7.63;6.82;;;;;;;;;;6214676;23;20004;-83
2022/08/30 11:22:18;;;;;;;7.38;6.40;;;;;;;;;;6213508;23;20088;-76
2022/08/30 11:25:00;;;;;;;8.80;6.55;;;;;;;;;;6213824;23;20032;-77
2022/08/30 11:27:45;;;;;;;6.57;5.93;;;;;;;;;;6212766;23;20016;-77
2022/08/30 11:30:29;;;;;;;7.53;6.70;;;;;;;;;;6215247;23;20008;-76
2022/08/30 11:33:03;;;;;;;10.70;8.80;;;;;;;;;;6214847;23;20000;-78
2022/08/30 11:35:29;;;;;;;;;;;;;;;;;;6215403;23;20028;-76
2022/08/30 11:37:55;;;;;;;8.65;7.60;;;;;;;;;;6215246;23;19900;-77
2022/08/30 11:40:21;;;;;;;6.75;6.10;;;;;;;;;;6214476;23;20460;-76
2022/08/30 11:42:51;;;;;;;9.43;6.43;;;;;;;;;;6214712;23;20072;-77
2022/08/30 11:45:23;;;;;;;8.52;6.95;;;;;;;;;;6215084;23;20005;-76
2022/08/30 11:48:09;;;;;;;9.23;6.97;;;;;;;;;;6214235;23;20062;-77
2022/08/30 11:50:40;;;;;;;8.32;7.25;;;;;;;;;;6214111;23;20078;-78
2022/08/30 11:53:21;;;;;;;10.55;7.05;;;;;;;;;;6214082;23;20340;-76
2022/08/30 11:56:08;;;;;;;8.20;7.15;;;;;;;;;;6214924;23;20002;-75
2022/08/30 11:58:41;;;;;;;9.48;8.50;;;;;;;;;;6187010;23;20083;-77
2022/08/30 12:01:26;;;;;;;7.15;6.45;;;;;;;;;;6214052;23;20082;-78
2022/08/30 12:04:10;;;;;;;7.88;7.07;;;;;;;;;;6214368;23;20425;-77
2022/08/30 12:06:57;;;;;;;8.75;7.72;;;;;;;;;;6214521;23;20000;-77
2022/08/30 12:09:23;;;;;;;8.85;7.03;;;;;;;;;;6214306;23;20061;-77
2022/08/30 12:12:08;;;;;;;9.57;7.45;;;;;;;;;;6213885;23;20004;-78
2022/08/30 12:14:41;;;;;;;8.27;6.72;;;;;;;;;;6213015;23;20028;-78
2022/08/30 12:19:58;;;;;;;7.40;6.57;;;;;;;;;;6214278;23;20020;-76
2022/08/30 12:22:26;;;;;;;8.80;6.80;;;;;;;;;;6213837;23;20108;-77
2022/08/30 12:24:53;;;;;;;7.28;6.55;;;;;;;;;;6214654;23;20027;-77
2022/08/30 12:27:27;;;;;;;11.02;7.57;;;;;;;;;;6213774;23;20000;-79
2022/08/30 12:30:06;;;;;;;8.05;7.25;;;;;;;;;;6214106;23;20007;-77
2022/08/30 12:32:34;;;;;;;12.35;7.13;;;;;;;;;;6214478;23;20032;-78
2022/08/30 12:35:02;;;;;;;8.00;7.18;;;;;;;;;;6213828;23;20447;-79
2022/08/30 12:37:28;;;;;;;9.50;6.50;;;;;;;;;;6214518;23;20368;-76
2022/08/30 12:40:13;;;;;;;7.53;6.78;;;;;;;;;;6214814;23;20035;-77
2022/08/30 12:42:41;;;;;;;13.95;10.05;;;;;;;;;;6213346;23;20009;-78
2022/08/30 12:45:13;;;;;;;7.80;7.03;;;;;;;;;;6214223;23;20460;-77
2022/08/30 12:47:43;;;;;;;11.25;7.53;;;;;;;;;;6214508;23;20035;-77
2022/08/30 12:50:10;;;;;;;8.38;6.70;;;;;;;;;;6214157;23;20000;-78
2022/08/30 12:52:43;;;;;;;7.20;6.50;;;;;;;;;;6214545;23;20310;-77
2022/08/30 12:55:29;;;;;;;9.75;6.95;;;;;;;;;;6214029;23;20005;-76
2022/08/30 12:57:55;;;;;;;7.20;6.60;;;;;;;;;;6213932;23;20000;-76
2022/08/30 13:00:30;;;;;;;7.38;6.63;;;;;;;;;;6213608;23;20035;-77
2022/08/30 13:03:01;;;;;;;7.75;6.57;;;;;;;;;;6213528;23;20432;-77
2022/08/30 13:05:45;;;;;;;9.82;6.75;;;;;;;;;;6212728;23;20001;-75
2022/08/30 13:08:34;;;;;;;7.43;6.72;;;;;;;;;;6212902;23;20021;-76
2022/08/30 13:11:02;;;;;;;11.77;7.20;;;;;;;;;;6186126;23;20012;-77
2022/08/30 13:13:48;;;;;;;10.43;7.35;;;;;;;;;;6212750;23;20023;-76
2022/08/30 13:16:19;;;;;;;8.05;7.30;;;;;;;;;;6192052;23;20344;-77
2022/08/30 13:18:46;;;;;;;11.00;7.63;;;;;;;;;;6212699;23;20039;-76
2022/08/30 13:21:22;;;;;;;9.68;6.97;;;;;;;;;;6212705;23;20013;-77
2022/08/30 13:23:50;;;;;;;10.75;7.93;;;;;;;;;;6212480;23;20012;-76
2022/08/30 13:26:16;;;;;;;7.82;7.10;;;;;;;;;;6215009;23;20009;-76
2022/08/30 13:28:43;;;;;;;10.23;7.15;;;;;;;;;;6215105;23;20452;-77
2022/08/30 13:31:09;;;;;;;10.73;7.93;;;;;;;;;;6215135;23;20005;-77
2022/08/30 13:33:35;;;;;;;9.50;8.13;;;;;;;;;;6215295;23;20000;-77
2022/08/30 13:36:01;;;;;;;7.60;6.90;;;;;;;;;;6215363;23;20008;-77
2022/08/30 13:38:27;;;;;;;11.57;8.43;;;;;;;;;;6215728;23;20016;-77
2022/08/30 13:40:54;;;;;;;8.90;7.60;;;;;;;;;;6215168;23;20051;-77
2022/08/30 13:43:20;;;;;;;10.50;8.23;;;;;;;;;;6215669;23;20499;-77
2022/08/30 13:45:46;;;;;;;9.02;8.23;;;;;;;;;;6215630;23;20005;-77
2022/08/30 13:48:13;;;;;;;10.48;8.38;;;;;;;;;;6215638;23;20001;-76
2022/08/30 13:50:39;;;;;;;9.23;8.25;;;;;;;;;;6215560;23;20028;-77
2022/08/30 13:53:07;;;;;;;8.85;7.85;;;;;;;;;;6215653;23;20087;-77
2022/08/30 13:55:34;;;;;;;9.45;8.60;;;;;;;;;;6215941;23;20047;-77
2022/08/30 13:58:00;;;;;;;12.63;8.50;;;;;;;;;;6217382;23;20004;-76
2022/08/30 14:00:26;;;;;;;10.85;8.52;;;;;;;;;;6217917;23;20079;-76
2022/08/30 14:02:54;;;;;;;12.35;8.55;;;;;;;;;;6217583;23;20067;-77
2022/08/30 14:05:21;;;;;;;11.05;8.80;;;;;;;;;;6217611;23;20394;-75
2022/08/30 14:07:47;;;;;;;10.15;8.52;;;;;;;;;;6217522;23;20444;-76
2022/08/30 14:10:14;;;;;;;11.80;7.95;;;;;;;;;;6217570;23;20001;-77
2022/08/30 14:12:40;;;;;;;11.35;7.90;;;;;;;;;;6217459;23;20443;-77
2022/08/30 14:15:06;;;;;;;8.70;7.85;;;;;;;;;;6217088;23;20106;-76
2022/08/30 14:17:34;;;;;;;12.32;7.75;;;;;;;;;;6217467;23;20011;-76
2022/08/30 14:20:00;;;;;;;9.95;8.00;;;;;;;;;;6217141;23;20378;-77
2022/08/30 14:22:26;;;;;;;7.43;6.72;;;;;;;;;;6217410;23;20019;-77
2022/08/30 14:24:53;;;;;;;8.32;6.38;;;;;;;;;;6213887;23;20309;-76
2022/08/30 14:27:19;;;;;;;11.95;8.07;;;;;;;;;;6216640;23;20012;-77
2022/08/30 14:29:46;;;;;;;10.35;7.00;;;;;;;;;;6216581;23;20016;-75
2022/08/30 14:32:12;;;;;;;14.38;8.40;;;;;;;;;;6216211;23;20024;-77
2022/08/30 14:34:38;;;;;;;12.10;7.97;;;;;;;;;;6216751;23;20084;-77
2022/08/30 14:37:05;;;;;;;10.40;7.15;;;;;;;;;;6189624;23;20645;-77
2022/08/30 14:39:31;;;;;;;11.50;8.13;;;;;;;;;;6216274;23;20008;-76
2022/08/30 14:41:58;;;;;;;11.60;7.43;;;;;;;;;;6216044;23;20016;-75
2022/08/30 14:44:24;;;;;;;11.30;7.97;;;;;;;;;;6216167;23;20072;-76
2022/08/30 14:46:51;;;;;;;11.75;10.23;;;;;;;;;;6215850;23;20005;-77
2022/08/30 14:49:17;;;;;;;16.88;14.38;;;;;;;;;;6216393;23;20506;-76